createdAt,value
2018-05-10T00:00:29.373Z,945.3
2018-05-10T00:01:29.365Z,945.29
2018-05-10T00:02:29.357Z,945.28
2018-05-10T00:03:29.349Z,945.27
2018-05-10T00:04:29.341Z,945.31
2018-05-10T00:05:29.334Z,945.29
2018-05-10T00:06:29.325Z,945.27
2018-05-10T00:07:29.316Z,945.28
2018-05-10T00:08:29.310Z,945.29
2018-05-10T00:09:29.303Z,945.27
2018-05-10T00:10:29.292Z,945.27
2018-05-10T00:11:29.285Z,945.23
2018-05-10T00:12:29.275Z,945.26
2018-05-10T00:13:29.267Z,945.26
2018-05-10T00:14:29.259Z,945.26
2018-05-10T00:15:29.251Z,945.22
2018-05-10T00:16:29.242Z,945.2
2018-05-10T00:17:29.234Z,945.22
2018-05-10T00:18:29.225Z,945.21
2018-05-10T00:19:29.218Z,945.21
2018-05-10T00:20:29.210Z,945.17
2018-05-10T00:21:29.200Z,945.16
2018-05-10T00:22:29.191Z,945.15
2018-05-10T00:23:29.185Z,945.17
2018-05-10T00:24:29.176Z,945.15
2018-05-10T00:25:29.168Z,945.16
2018-05-10T00:26:29.158Z,945.14
2018-05-10T00:27:29.150Z,945.16
2018-05-10T00:28:29.147Z,945.16
2018-05-10T00:29:29.135Z,945.17
2018-05-10T00:30:29.127Z,945.19
2018-05-10T00:31:29.120Z,945.15
2018-05-10T00:32:29.111Z,945.17
2018-05-10T00:33:29.102Z,945.15
2018-05-10T00:34:29.093Z,945.13
2018-05-10T00:35:29.089Z,945.14
2018-05-10T00:36:29.077Z,945.1
2018-05-10T00:37:29.068Z,945.1
2018-05-10T00:38:29.061Z,945.1
2018-05-10T00:39:29.054Z,945.1
2018-05-10T00:40:29.044Z,945.08
2018-05-10T00:41:29.036Z,945.1
2018-05-10T00:42:29.029Z,945.1
2018-05-10T00:43:29.019Z,945.11
2018-05-10T00:44:29.012Z,945.14
2018-05-10T00:45:29.004Z,945.12
2018-05-10T00:46:28.995Z,945.13
2018-05-10T00:47:28.987Z,945.13
2018-05-10T00:48:28.978Z,945.12
2018-05-10T00:49:28.982Z,945.1
2018-05-10T00:50:28.962Z,945.11
2018-05-10T00:51:28.953Z,945.12
2018-05-10T00:52:28.947Z,945.13
2018-05-10T00:53:28.938Z,945.12
2018-05-10T00:54:28.928Z,945.08
2018-05-10T00:55:28.921Z,945.1
2018-05-10T00:56:28.913Z,945.09
2018-05-10T00:57:28.904Z,945.09
2018-05-10T00:58:28.895Z,945.08
2018-05-10T00:59:28.888Z,945.07
2018-05-10T01:00:28.879Z,945.05
2018-05-10T01:01:28.872Z,945.04
2018-05-10T01:02:28.863Z,945.08
2018-05-10T01:03:28.855Z,945.06
2018-05-10T01:04:28.846Z,945.05
2018-05-10T01:05:28.839Z,945.02
2018-05-10T01:06:28.830Z,945.04
2018-05-10T01:07:28.821Z,945.06
2018-05-10T01:08:28.814Z,945.04
2018-05-10T01:09:28.804Z,945.05
2018-05-10T01:10:28.796Z,945.05
2018-05-10T01:11:28.787Z,945.06
2018-05-10T01:12:28.779Z,945.02
2018-05-10T01:13:28.771Z,945.06
2018-05-10T01:14:28.761Z,945.07
2018-05-10T01:15:28.835Z,945.05
2018-05-10T01:16:28.745Z,945.04
2018-05-10T01:17:28.742Z,945.03
2018-05-10T01:18:28.729Z,945.05
2018-05-10T01:19:28.720Z,945.04
2018-05-10T01:20:28.713Z,945.06
2018-05-10T01:21:28.702Z,945.02
2018-05-10T01:22:28.695Z,945.02
2018-05-10T01:23:28.685Z,945.02
2018-05-10T01:24:28.677Z,945
2018-05-10T01:25:28.668Z,945.04
2018-05-10T01:26:28.660Z,945.03
2018-05-10T01:27:28.652Z,945.08
2018-05-10T01:28:28.642Z,945.03
2018-05-10T01:29:28.634Z,945.03
2018-05-10T01:30:28.628Z,945.05
2018-05-10T01:31:28.619Z,945.05
2018-05-10T01:32:28.608Z,945.09
2018-05-10T01:33:28.601Z,945.06
2018-05-10T01:34:28.591Z,945.05
2018-05-10T01:35:28.582Z,945.12
2018-05-10T01:36:28.574Z,945.09
2018-05-10T01:37:28.566Z,945.12
2018-05-10T01:38:28.557Z,945.1
2018-05-10T01:39:28.550Z,945.09
2018-05-10T01:40:28.541Z,945.13
2018-05-10T01:41:28.531Z,945.08
2018-05-10T01:42:28.522Z,945.12
2018-05-10T01:43:28.513Z,945.09
2018-05-10T01:44:28.506Z,945.09
2018-05-10T01:45:28.497Z,945.06
2018-05-10T01:46:28.488Z,945.11
2018-05-10T01:47:28.479Z,945.12
2018-05-10T01:48:28.471Z,945.09
2018-05-10T01:49:28.461Z,945.11
2018-05-10T01:50:28.458Z,945.12
2018-05-10T01:51:28.444Z,945.12
2018-05-10T01:52:28.436Z,945.07
2018-05-10T01:53:28.427Z,945.1
2018-05-10T01:54:28.417Z,945.1
2018-05-10T01:55:28.408Z,945.06
2018-05-10T01:56:28.400Z,945.11
2018-05-10T01:57:28.392Z,945.11
2018-05-10T01:58:28.383Z,945.14
2018-05-10T01:59:28.372Z,945.09
2018-05-10T02:00:28.364Z,945.06
2018-05-10T02:01:28.355Z,945.09
2018-05-10T02:02:28.347Z,945.11
2018-05-10T02:03:28.339Z,945.1
2018-05-10T02:04:28.329Z,945.1
2018-05-10T02:05:28.322Z,945.13
2018-05-10T02:06:28.312Z,945.1
2018-05-10T02:07:28.303Z,945.13
2018-05-10T02:08:28.294Z,945.11
2018-05-10T02:09:28.286Z,945.13
2018-05-10T02:10:28.277Z,945.07
2018-05-10T02:11:28.267Z,945.13
2018-05-10T02:12:28.257Z,945.06
2018-05-10T02:13:28.250Z,945.06
2018-05-10T02:14:28.242Z,945.07
2018-05-10T02:15:28.231Z,945.03
2018-05-10T02:16:28.223Z,945.07
2018-05-10T02:17:28.214Z,945.06
2018-05-10T02:18:28.205Z,945.06
2018-05-10T02:19:28.196Z,945.06
2018-05-10T02:20:28.188Z,945.04
2018-05-10T02:21:28.181Z,945.04
2018-05-10T02:22:28.169Z,945.08
2018-05-10T02:23:28.160Z,945.1
2018-05-10T02:24:28.151Z,945.09
2018-05-10T02:25:28.143Z,945.1
2018-05-10T02:26:28.134Z,945.11
2018-05-10T02:27:28.124Z,945.07
2018-05-10T02:28:28.116Z,945.09
2018-05-10T02:29:28.106Z,945.06
2018-05-10T02:30:28.097Z,945.1
2018-05-10T02:31:28.090Z,945.1
2018-05-10T02:32:28.086Z,945.1
2018-05-10T02:33:28.069Z,945.07
2018-05-10T02:34:28.065Z,945.08
2018-05-10T02:35:28.053Z,945.11
2018-05-10T02:36:28.049Z,945.14
2018-05-10T02:37:28.035Z,945.15
2018-05-10T02:38:28.027Z,945.09
2018-05-10T02:39:28.018Z,945.11
2018-05-10T02:40:28.007Z,945.1
2018-05-10T02:41:28.009Z,945.11
2018-05-10T02:42:27.988Z,945.11
2018-05-10T02:43:27.982Z,945.1
2018-05-10T02:44:27.970Z,945.14
2018-05-10T02:45:27.963Z,945.1
2018-05-10T02:46:27.954Z,945.1
2018-05-10T02:47:27.944Z,945.14
2018-05-10T02:48:27.934Z,945.09
2018-05-10T02:49:27.925Z,945.12
2018-05-10T02:50:27.918Z,945.12
2018-05-10T02:51:27.907Z,945.12
2018-05-10T02:52:27.898Z,945.12
2018-05-10T02:53:27.891Z,945.1
2018-05-10T02:54:27.881Z,945.09
2018-05-10T02:55:27.871Z,945.06
2018-05-10T02:56:27.862Z,945.09
2018-05-10T02:57:27.854Z,945.12
2018-05-10T02:58:27.843Z,945.11
2018-05-10T02:59:27.834Z,945.11
2018-05-10T03:00:27.825Z,945.1
2018-05-10T03:01:27.818Z,945.09
2018-05-10T03:02:27.806Z,945.1
2018-05-10T03:03:27.800Z,945.15
2018-05-10T03:04:27.789Z,945.12
2018-05-10T03:05:27.781Z,945.15
2018-05-10T03:06:27.772Z,945.13
2018-05-10T03:07:27.762Z,945.13
2018-05-10T03:08:27.752Z,945.2
2018-05-10T03:09:27.743Z,945.13
2018-05-10T03:10:27.734Z,945.11
2018-05-10T03:11:27.727Z,945.16
2018-05-10T03:12:27.720Z,945.18
2018-05-10T03:13:27.708Z,945.13
2018-05-10T03:14:27.704Z,945.16
2018-05-10T03:15:27.693Z,945.1
2018-05-10T03:16:27.681Z,945.14
2018-05-10T03:17:27.671Z,945.11
2018-05-10T03:18:27.661Z,945.14
2018-05-10T03:19:27.652Z,945.1
2018-05-10T03:20:27.642Z,945.12
2018-05-10T03:21:27.631Z,945.16
2018-05-10T03:22:27.624Z,945.15
2018-05-10T03:23:27.613Z,945.13
2018-05-10T03:24:27.605Z,945.14
2018-05-10T03:25:27.596Z,945.12
2018-05-10T03:26:27.588Z,945.13
2018-05-10T03:27:27.578Z,945.1
2018-05-10T03:28:27.568Z,945.11
2018-05-10T03:29:27.558Z,945.12
2018-05-10T03:30:27.555Z,945.11
2018-05-10T03:31:27.541Z,945.12
2018-05-10T03:32:27.532Z,945.08
2018-05-10T03:33:27.522Z,945.12
2018-05-10T03:34:27.514Z,945.18
2018-05-10T03:35:27.502Z,945.15
2018-05-10T03:36:27.497Z,945.13
2018-05-10T03:37:27.486Z,945.16
2018-05-10T03:38:27.475Z,945.18
2018-05-10T03:39:27.466Z,945.16
2018-05-10T03:40:27.536Z,945.19
2018-05-10T03:41:27.448Z,945.16
2018-05-10T03:42:27.439Z,945.21
2018-05-10T03:43:27.429Z,945.2
2018-05-10T03:44:27.418Z,945.22
2018-05-10T03:45:27.411Z,945.19
2018-05-10T03:46:27.481Z,945.21
2018-05-10T03:47:27.392Z,945.27
2018-05-10T03:48:27.382Z,945.24
2018-05-10T03:49:27.379Z,945.28
2018-05-10T03:50:27.363Z,945.24
2018-05-10T03:51:27.353Z,945.26
2018-05-10T03:52:27.345Z,945.28
2018-05-10T03:53:27.335Z,945.24
2018-05-10T03:54:27.325Z,945.3
2018-05-10T03:55:27.316Z,945.28
2018-05-10T03:56:27.307Z,945.3
2018-05-10T03:57:27.297Z,945.29
2018-05-10T03:58:27.288Z,945.24
2018-05-10T03:59:27.279Z,945.27
2018-05-10T04:00:27.269Z,945.22
2018-05-10T04:01:27.259Z,945.23
2018-05-10T04:02:27.252Z,945.2
2018-05-10T04:03:27.241Z,945.22
2018-05-10T04:04:27.234Z,945.25
2018-05-10T04:05:27.223Z,945.25
2018-05-10T04:06:27.224Z,945.22
2018-05-10T04:07:27.204Z,945.22
2018-05-10T04:08:27.197Z,945.23
2018-05-10T04:09:27.185Z,945.2
2018-05-10T04:10:27.177Z,945.19
2018-05-10T04:11:27.167Z,945.14
2018-05-10T04:12:27.158Z,945.15
2018-05-10T04:13:27.148Z,945.15
2018-05-10T04:14:27.141Z,945.16
2018-05-10T04:15:27.197Z,945.13
2018-05-10T04:16:27.121Z,945.16
2018-05-10T04:17:27.115Z,945.15
2018-05-10T04:18:27.102Z,945.16
2018-05-10T04:19:27.093Z,945.15
2018-05-10T04:20:27.088Z,945.16
2018-05-10T04:21:27.087Z,945.15
2018-05-10T04:22:27.068Z,945.2
2018-05-10T04:23:27.057Z,945.15
2018-05-10T04:24:27.048Z,945.11
2018-05-10T04:25:27.039Z,945.2
2018-05-10T04:26:27.029Z,945.19
2018-05-10T04:27:27.022Z,945.17
2018-05-10T04:28:27.018Z,945.2
2018-05-10T04:29:27.005Z,945.19
2018-05-10T04:30:26.995Z,945.19
2018-05-10T04:31:26.987Z,945.2
2018-05-10T04:32:26.982Z,945.23
2018-05-10T04:33:26.970Z,945.25
2018-05-10T04:34:26.960Z,945.26
2018-05-10T04:35:26.952Z,945.22
2018-05-10T04:36:26.946Z,945.27
2018-05-10T04:37:26.935Z,945.23
2018-05-10T04:38:26.926Z,945.24
2018-05-10T04:39:26.917Z,945.29
2018-05-10T04:40:26.910Z,945.27
2018-05-10T04:41:26.901Z,945.29
2018-05-10T04:42:26.893Z,945.3
2018-05-10T04:43:26.885Z,945.34
2018-05-10T04:44:26.876Z,945.34
2018-05-10T04:45:26.870Z,945.31
2018-05-10T04:46:26.862Z,945.33
2018-05-10T04:47:26.854Z,945.3
2018-05-10T04:48:26.846Z,945.34
2018-05-10T04:49:26.840Z,945.34
2018-05-10T04:50:26.830Z,945.35
2018-05-10T04:51:26.825Z,945.38
2018-05-10T04:52:26.814Z,945.39
2018-05-10T04:53:26.807Z,945.36
2018-05-10T04:54:26.798Z,945.37
2018-05-10T04:55:26.790Z,945.37
2018-05-10T04:56:26.784Z,945.4
2018-05-10T04:57:26.775Z,945.31
2018-05-10T04:58:26.768Z,945.4
2018-05-10T04:59:26.758Z,945.35
2018-05-10T05:00:26.754Z,945.33
2018-05-10T05:01:26.746Z,945.34
2018-05-10T05:02:26.743Z,945.35
2018-05-10T05:03:26.786Z,945.4
2018-05-10T05:04:26.727Z,945.38
2018-05-10T05:05:26.717Z,945.4
2018-05-10T05:06:26.710Z,945.38
2018-05-10T05:07:26.703Z,945.38
2018-05-10T05:08:26.696Z,945.4
2018-05-10T05:09:26.688Z,945.38
2018-05-10T05:10:26.680Z,945.37
2018-05-10T05:11:26.675Z,945.4
2018-05-10T05:12:26.667Z,945.42
2018-05-10T05:13:26.660Z,945.45
2018-05-10T05:14:26.652Z,945.44
2018-05-10T05:15:26.648Z,945.44
2018-05-10T05:16:26.639Z,945.44
2018-05-10T05:17:26.653Z,945.47
2018-05-10T05:18:26.625Z,945.48
2018-05-10T05:19:26.618Z,945.53
2018-05-10T05:20:26.613Z,945.49
2018-05-10T05:21:26.688Z,945.51
2018-05-10T05:22:26.598Z,945.46
2018-05-10T05:23:26.591Z,945.47
2018-05-10T05:24:26.589Z,945.49
2018-05-10T05:25:26.579Z,945.47
2018-05-10T05:26:26.572Z,945.48
2018-05-10T05:27:26.566Z,945.49
2018-05-10T05:28:26.559Z,945.48
2018-05-10T05:29:26.555Z,945.52
2018-05-10T05:30:26.555Z,945.53
2018-05-10T05:31:26.540Z,945.52
2018-05-10T05:32:26.533Z,945.5
2018-05-10T05:33:26.526Z,945.52
2018-05-10T05:34:26.520Z,945.52
2018-05-10T05:35:26.516Z,945.53
2018-05-10T05:36:26.508Z,945.51
2018-05-10T05:37:26.505Z,945.48
2018-05-10T05:38:26.496Z,945.49
2018-05-10T05:39:26.489Z,945.55
2018-05-10T05:40:26.506Z,945.55
2018-05-10T05:41:26.584Z,945.56
2018-05-10T05:42:26.476Z,945.54
2018-05-10T05:43:26.565Z,945.56
2018-05-10T05:44:26.469Z,945.56
2018-05-10T05:45:26.454Z,945.56
2018-05-10T05:46:26.449Z,945.58
2018-05-10T05:47:26.447Z,945.6
2018-05-10T05:48:26.435Z,945.6
2018-05-10T05:49:26.431Z,945.61
2018-05-10T05:50:26.425Z,945.61
2018-05-10T05:51:26.418Z,945.62
2018-05-10T05:52:26.415Z,945.63
2018-05-10T05:53:26.414Z,945.65
2018-05-10T05:54:26.402Z,945.56
2018-05-10T05:55:26.396Z,945.61
2018-05-10T05:56:26.391Z,945.61
2018-05-10T05:57:26.388Z,945.62
2018-05-10T05:58:26.381Z,945.63
2018-05-10T05:59:26.376Z,945.59
2018-05-10T06:00:26.368Z,945.66
2018-05-10T06:01:26.364Z,945.65
2018-05-10T06:02:26.359Z,945.65
2018-05-10T06:03:26.357Z,945.67
2018-05-10T06:04:26.347Z,945.7
2018-05-10T06:05:26.342Z,945.7
2018-05-10T06:06:26.339Z,945.7
2018-05-10T06:07:26.335Z,945.71
2018-05-10T06:08:26.405Z,945.69
2018-05-10T06:09:26.321Z,945.66
2018-05-10T06:10:26.315Z,945.7
2018-05-10T06:11:26.311Z,945.67
2018-05-10T06:12:26.305Z,945.63
2018-05-10T06:13:26.301Z,945.67
2018-05-10T06:14:26.295Z,945.67
2018-05-10T06:15:26.379Z,945.69
2018-05-10T06:16:26.286Z,945.67
2018-05-10T06:17:26.280Z,945.7
2018-05-10T06:18:26.275Z,945.73
2018-05-10T06:19:26.272Z,945.73
2018-05-10T06:20:26.267Z,945.73
2018-05-10T06:21:26.264Z,945.75
2018-05-10T06:22:26.258Z,945.75
2018-05-10T06:23:26.253Z,945.75
2018-05-10T06:24:26.249Z,945.77
2018-05-10T06:25:26.244Z,945.78
2018-05-10T06:26:26.240Z,945.71
2018-05-10T06:27:26.236Z,945.76
2018-05-10T06:28:26.235Z,945.77
2018-05-10T06:29:26.224Z,945.79
2018-05-10T06:30:26.224Z,945.79
2018-05-10T06:31:26.217Z,945.81
2018-05-10T06:32:26.214Z,945.82
2018-05-10T06:33:26.209Z,945.83
2018-05-10T06:34:26.215Z,945.85
2018-05-10T06:35:26.201Z,945.88
2018-05-10T06:36:26.197Z,945.85
2018-05-10T06:37:26.195Z,945.87
2018-05-10T06:38:26.188Z,945.89
2018-05-10T06:39:26.187Z,945.9
2018-05-10T06:40:26.187Z,945.91
2018-05-10T06:41:26.240Z,945.88
2018-05-10T06:42:26.174Z,945.93
2018-05-10T06:43:26.172Z,945.9
2018-05-10T06:44:26.172Z,945.89
2018-05-10T06:45:26.165Z,945.9
2018-05-10T06:46:26.161Z,945.93
2018-05-10T06:47:26.159Z,945.94
2018-05-10T06:48:26.157Z,945.95
2018-05-10T06:49:26.154Z,946.01
2018-05-10T06:50:26.151Z,945.96
2018-05-10T06:51:26.148Z,945.95
2018-05-10T06:52:26.145Z,946.02
2018-05-10T06:53:26.145Z,945.94
2018-05-10T06:54:26.143Z,945.99
2018-05-10T06:55:26.141Z,945.98
2018-05-10T06:56:26.149Z,946
2018-05-10T06:57:26.138Z,946.01
2018-05-10T06:58:26.137Z,946.03
2018-05-10T06:59:26.136Z,945.99
2018-05-10T07:00:26.135Z,946.01
2018-05-10T07:01:26.133Z,946.09
2018-05-10T07:02:26.137Z,946.06
2018-05-10T07:03:26.163Z,946.09
2018-05-10T07:04:26.131Z,946.09
2018-05-10T07:05:26.131Z,946.11
2018-05-10T07:06:26.133Z,946.16
2018-05-10T07:07:26.131Z,946.24
2018-05-10T07:08:26.132Z,946.27
2018-05-10T07:09:26.292Z,946.27
2018-05-10T07:10:26.134Z,946.31
2018-05-10T07:11:26.133Z,946.27
2018-05-10T07:12:26.135Z,946.28
2018-05-10T07:13:26.137Z,946.22
2018-05-10T07:14:26.137Z,946.18
2018-05-10T07:15:26.142Z,946.21
2018-05-10T07:16:26.145Z,946.24
2018-05-10T07:17:26.145Z,946.23
2018-05-10T07:18:26.147Z,946.21
2018-05-10T07:19:26.150Z,946.24
2018-05-10T07:20:26.156Z,946.3
2018-05-10T07:21:26.158Z,946.35
2018-05-10T07:22:26.161Z,946.32
2018-05-10T07:23:26.168Z,946.32
2018-05-10T07:24:26.174Z,946.3
2018-05-10T07:25:26.247Z,946.33
2018-05-10T07:26:26.179Z,946.31
2018-05-10T07:27:26.184Z,946.28
2018-05-10T07:28:26.188Z,946.32
2018-05-10T07:29:26.192Z,946.37
2018-05-10T07:30:26.197Z,946.42
2018-05-10T07:31:26.205Z,946.41
2018-05-10T07:32:26.209Z,946.42
2018-05-10T07:33:26.216Z,946.39
2018-05-10T07:34:26.224Z,946.55
2018-05-10T07:35:26.226Z,946.32
2018-05-10T07:36:26.231Z,946.35
2018-05-10T07:37:26.238Z,946.23
2018-05-10T07:38:26.243Z,946.56
2018-05-10T07:39:26.249Z,946.74
2018-05-10T07:40:26.254Z,946.65
2018-05-10T07:41:26.260Z,946.34
2018-05-10T07:42:26.265Z,946.09
2018-05-10T07:43:26.272Z,946.06
2018-05-10T07:44:26.276Z,946.06
2018-05-10T07:45:26.283Z,946.04
2018-05-10T07:46:26.291Z,946.08
2018-05-10T07:47:26.329Z,946.06
2018-05-10T07:48:26.298Z,946.06
2018-05-10T07:49:26.304Z,946.04
2018-05-10T07:50:26.309Z,946.07
2018-05-10T07:51:26.313Z,946.08
2018-05-10T07:52:26.319Z,946.07
2018-05-10T07:53:26.325Z,946.07
2018-05-10T07:54:26.329Z,946.06
2018-05-10T07:55:26.335Z,946.1
2018-05-10T07:56:26.340Z,946.06
2018-05-10T07:57:26.351Z,946.09
2018-05-10T07:58:26.406Z,946.08
2018-05-10T07:59:26.360Z,946.09
2018-05-10T08:00:26.359Z,946.1
2018-05-10T08:01:26.363Z,946.07
2018-05-10T08:02:26.367Z,946.17
2018-05-10T08:03:26.374Z,946.15
2018-05-10T08:04:26.376Z,946.17
2018-05-10T08:05:26.380Z,946.17
2018-05-10T08:06:26.386Z,946.19
2018-05-10T08:07:26.393Z,946.15
2018-05-10T08:08:26.394Z,946.17
2018-05-10T08:09:26.398Z,946.15
2018-05-10T08:10:26.400Z,946.17
2018-05-10T08:11:26.405Z,946.2
2018-05-10T08:12:26.408Z,946.16
2018-05-10T08:13:26.411Z,946.18
2018-05-10T08:14:26.414Z,946.21
2018-05-10T08:15:26.417Z,946.21
2018-05-10T08:16:26.422Z,946.18
2018-05-10T08:17:26.423Z,946.19
2018-05-10T08:18:26.428Z,946.25
2018-05-10T08:19:26.432Z,946.25
2018-05-10T08:20:26.434Z,946.2
2018-05-10T08:21:26.437Z,946.21
2018-05-10T08:22:26.440Z,946.26
2018-05-10T08:23:26.444Z,946.26
2018-05-10T08:24:26.449Z,946.27
2018-05-10T08:25:26.454Z,946.25
2018-05-10T08:26:26.453Z,946.29
2018-05-10T08:27:26.459Z,946.3
2018-05-10T08:28:26.456Z,946.3
2018-05-10T08:29:26.460Z,946.32
2018-05-10T08:30:26.462Z,946.37
2018-05-10T08:31:26.464Z,946.33
2018-05-10T08:32:26.469Z,946.39
2018-05-10T08:33:26.472Z,946.41
2018-05-10T08:34:26.477Z,946.37
2018-05-10T08:35:26.475Z,946.39
2018-05-10T08:36:26.522Z,946.34
2018-05-10T08:37:26.482Z,946.41
2018-05-10T08:38:26.483Z,946.4
2018-05-10T08:39:26.484Z,946.4
2018-05-10T08:40:26.488Z,946.41
2018-05-10T08:41:26.491Z,946.39
2018-05-10T08:42:26.493Z,946.41
2018-05-10T08:43:26.497Z,946.39
2018-05-10T08:44:26.499Z,946.44
2018-05-10T08:45:26.503Z,946.47
2018-05-10T08:46:26.505Z,946.48
2018-05-10T08:47:26.510Z,946.48
2018-05-10T08:48:26.512Z,946.46
2018-05-10T08:49:26.515Z,946.5
2018-05-10T08:50:26.520Z,946.53
2018-05-10T08:51:26.526Z,946.48
2018-05-10T08:52:26.525Z,946.49
2018-05-10T08:53:26.527Z,946.59
2018-05-10T08:54:26.531Z,946.54
2018-05-10T08:55:26.534Z,946.58
2018-05-10T08:56:26.538Z,946.54
2018-05-10T08:57:26.540Z,946.53
2018-05-10T08:58:26.545Z,946.54
2018-05-10T08:59:26.546Z,946.53
2018-05-10T09:00:26.549Z,946.5
2018-05-10T09:01:26.553Z,946.53
2018-05-10T09:02:26.561Z,946.53
2018-05-10T09:03:26.558Z,946.52
2018-05-10T09:04:26.560Z,946.52
2018-05-10T09:05:26.564Z,946.54
2018-05-10T09:06:26.567Z,946.56
2018-05-10T09:07:26.590Z,946.53
2018-05-10T09:08:26.572Z,946.53
2018-05-10T09:09:26.575Z,946.57
2018-05-10T09:10:26.579Z,946.59
2018-05-10T09:11:26.580Z,946.59
2018-05-10T09:12:26.583Z,946.57
2018-05-10T09:13:26.587Z,946.59
2018-05-10T09:14:26.594Z,946.6
2018-05-10T09:15:26.593Z,946.62
2018-05-10T09:16:26.597Z,946.61
2018-05-10T09:17:26.600Z,946.63
2018-05-10T09:18:26.603Z,946.67
2018-05-10T09:19:26.604Z,946.6
2018-05-10T09:20:26.610Z,946.69
2018-05-10T09:21:26.612Z,946.64
2018-05-10T09:22:26.616Z,946.64
2018-05-10T09:23:26.618Z,946.69
2018-05-10T09:24:26.620Z,946.72
2018-05-10T09:25:26.625Z,946.69
2018-05-10T09:26:26.628Z,946.65
2018-05-10T09:27:26.630Z,946.76
2018-05-10T09:28:26.693Z,946.76
2018-05-10T09:29:26.638Z,946.76
2018-05-10T09:30:26.666Z,946.78
2018-05-10T09:31:26.646Z,946.77
2018-05-10T09:32:26.652Z,946.76
2018-05-10T09:33:26.703Z,946.77
2018-05-10T09:34:26.655Z,946.83
2018-05-10T09:35:26.657Z,946.82
2018-05-10T09:36:26.661Z,946.84
2018-05-10T09:37:26.664Z,946.8
2018-05-10T09:38:26.667Z,946.81
2018-05-10T09:39:26.754Z,946.86
2018-05-10T09:40:26.672Z,946.82
2018-05-10T09:41:26.676Z,946.86
2018-05-10T09:42:26.680Z,946.83
2018-05-10T09:43:26.683Z,946.82
2018-05-10T09:44:26.685Z,946.87
2018-05-10T09:45:26.689Z,946.84
2018-05-10T09:46:26.696Z,946.81
2018-05-10T09:47:26.700Z,946.86
2018-05-10T09:48:26.698Z,946.86
2018-05-10T09:49:26.702Z,946.84
2018-05-10T09:50:26.707Z,946.82
2018-05-10T09:51:26.713Z,946.83
2018-05-10T09:52:26.742Z,946.9
2018-05-10T09:53:26.717Z,946.91
2018-05-10T09:54:26.721Z,946.93
2018-05-10T09:55:26.724Z,946.92
2018-05-10T09:56:26.729Z,946.88
2018-05-10T09:57:26.734Z,946.92
2018-05-10T09:58:26.736Z,946.85
2018-05-10T09:59:26.756Z,946.85
2018-05-10T10:00:26.744Z,946.88
2018-05-10T10:01:26.748Z,946.9
2018-05-10T10:02:26.751Z,946.91
2018-05-10T10:03:26.756Z,946.87
2018-05-10T10:04:26.759Z,946.9
2018-05-10T10:05:26.766Z,946.91
2018-05-10T10:06:26.770Z,946.92
2018-05-10T10:07:26.775Z,946.89
2018-05-10T10:08:26.773Z,946.92
2018-05-10T10:09:26.776Z,946.91
2018-05-10T10:10:26.779Z,946.98
2018-05-10T10:11:26.782Z,946.94
2018-05-10T10:12:26.786Z,946.94
2018-05-10T10:13:26.788Z,946.94
2018-05-10T10:14:26.792Z,946.93
2018-05-10T10:15:26.796Z,946.96
2018-05-10T10:16:26.800Z,946.96
2018-05-10T10:17:26.800Z,946.99
2018-05-10T10:18:26.810Z,946.92
2018-05-10T10:19:26.809Z,946.98
2018-05-10T10:20:26.812Z,947
2018-05-10T10:21:26.814Z,946.96
2018-05-10T10:22:26.817Z,946.94
2018-05-10T10:23:26.823Z,946.99
2018-05-10T10:24:26.822Z,946.97
2018-05-10T10:25:26.825Z,946.99
2018-05-10T10:26:26.828Z,947.03
2018-05-10T10:27:26.889Z,947.01
2018-05-10T10:28:26.834Z,947.02
2018-05-10T10:29:26.837Z,947.04
2018-05-10T10:30:26.841Z,947.08
2018-05-10T10:31:26.846Z,947.02
2018-05-10T10:32:26.926Z,947.01
2018-05-10T10:33:26.849Z,947
2018-05-10T10:34:26.888Z,946.97
2018-05-10T10:35:26.855Z,946.91
2018-05-10T10:36:26.858Z,946.94
2018-05-10T10:37:26.863Z,946.96
2018-05-10T10:38:26.866Z,946.91
2018-05-10T10:39:26.869Z,946.94
2018-05-10T10:40:26.878Z,946.94
2018-05-10T10:41:26.875Z,946.93
2018-05-10T10:42:26.885Z,946.9
2018-05-10T10:43:26.881Z,946.98
2018-05-10T10:44:26.885Z,946.98
2018-05-10T10:45:26.973Z,946.97
2018-05-10T10:46:26.892Z,946.97
2018-05-10T10:47:26.897Z,946.91
2018-05-10T10:48:26.903Z,946.93
2018-05-10T10:49:26.904Z,946.92
2018-05-10T10:50:26.907Z,946.9
2018-05-10T10:51:26.909Z,946.88
2018-05-10T10:52:26.913Z,946.89
2018-05-10T10:53:26.917Z,946.9
2018-05-10T10:54:26.919Z,946.85
2018-05-10T10:55:26.922Z,946.83
2018-05-10T10:56:26.930Z,946.79
2018-05-10T10:57:26.929Z,946.77
2018-05-10T10:58:26.932Z,946.71
2018-05-10T10:59:26.936Z,946.78
2018-05-10T11:00:26.942Z,946.77
2018-05-10T11:01:26.942Z,946.78
2018-05-10T11:02:26.946Z,946.76
2018-05-10T11:03:26.948Z,946.8
2018-05-10T11:04:26.954Z,946.8
2018-05-10T11:05:26.960Z,946.84
2018-05-10T11:06:26.959Z,946.85
2018-05-10T11:07:26.963Z,946.83
2018-05-10T11:08:26.966Z,946.81
2018-05-10T11:09:26.968Z,946.83
2018-05-10T11:10:26.977Z,946.81
2018-05-10T11:11:26.974Z,946.83
2018-05-10T11:12:26.978Z,946.82
2018-05-10T11:13:26.984Z,946.86
2018-05-10T11:14:26.993Z,946.88
2018-05-10T11:15:26.985Z,946.86
2018-05-10T11:16:26.989Z,946.9
2018-05-10T11:17:26.992Z,946.89
2018-05-10T11:18:26.994Z,946.9
2018-05-10T11:19:26.995Z,946.96
2018-05-10T11:20:26.999Z,946.92
2018-05-10T11:21:27.002Z,946.93
2018-05-10T11:22:27.003Z,946.92
2018-05-10T11:23:27.007Z,946.92
2018-05-10T11:24:27.009Z,946.93
2018-05-10T11:25:27.011Z,946.97
2018-05-10T11:26:27.013Z,946.94
2018-05-10T11:27:27.066Z,946.98
2018-05-10T11:28:27.018Z,947.02
2018-05-10T11:29:27.022Z,947.03
2018-05-10T11:30:27.022Z,947.01
2018-05-10T11:31:27.024Z,947.08
2018-05-10T11:32:27.027Z,947.11
2018-05-10T11:33:27.029Z,947.1
2018-05-10T11:34:27.031Z,947.13
2018-05-10T11:35:27.035Z,947.16
2018-05-10T11:36:27.036Z,947.18
2018-05-10T11:37:27.041Z,947.17
2018-05-10T11:38:27.044Z,947.21
2018-05-10T11:39:27.042Z,947.2
2018-05-10T11:40:27.046Z,947.19
2018-05-10T11:41:27.047Z,947.2
2018-05-10T11:42:27.048Z,947.17
2018-05-10T11:43:27.051Z,947.19
2018-05-10T11:44:27.151Z,947.17
2018-05-10T11:45:27.055Z,947.2
2018-05-10T11:46:27.056Z,947.24
2018-05-10T11:47:27.065Z,947.23
2018-05-10T11:48:27.060Z,947.22
2018-05-10T11:49:27.061Z,947.24
2018-05-10T11:50:27.064Z,947.24
2018-05-10T11:51:27.064Z,947.25
2018-05-10T11:52:27.065Z,947.27
2018-05-10T11:53:27.067Z,947.28
2018-05-10T11:54:27.068Z,947.31
2018-05-10T11:55:27.069Z,947.33
2018-05-10T11:56:27.071Z,947.32
2018-05-10T11:57:27.099Z,947.32
2018-05-10T11:58:27.074Z,947.27
2018-05-10T11:59:27.073Z,947.31
2018-05-10T12:00:27.091Z,947.34
2018-05-10T12:01:27.076Z,947.31
2018-05-10T12:02:27.121Z,947.31
2018-05-10T12:03:27.078Z,947.33
2018-05-10T12:04:27.078Z,947.36
2018-05-10T12:05:27.078Z,947.33
2018-05-10T12:06:27.101Z,947.35
2018-05-10T12:07:27.104Z,947.4
2018-05-10T12:08:27.105Z,947.41
2018-05-10T12:09:27.106Z,947.45
2018-05-10T12:10:27.106Z,947.47
2018-05-10T12:11:27.107Z,947.47
2018-05-10T12:12:27.109Z,947.48
2018-05-10T12:13:27.105Z,947.48
2018-05-10T12:14:27.107Z,947.46
2018-05-10T12:15:27.106Z,947.51
2018-05-10T12:16:27.109Z,947.48
2018-05-10T12:17:27.109Z,947.46
2018-05-10T12:18:27.106Z,947.49
2018-05-10T12:19:27.115Z,947.56
2018-05-10T12:20:27.196Z,947.55
2018-05-10T12:21:27.103Z,947.55
2018-05-10T12:22:27.109Z,947.55
2018-05-10T12:23:27.108Z,947.55
2018-05-10T12:24:27.106Z,947.54
2018-05-10T12:25:27.108Z,947.56
2018-05-10T12:26:27.109Z,947.53
2018-05-10T12:27:27.110Z,947.53
2018-05-10T12:28:27.105Z,947.49
2018-05-10T12:29:27.109Z,947.55
2018-05-10T12:30:27.156Z,947.55
2018-05-10T12:31:27.107Z,947.56